Time;durP1;ratioP1;P1;durP2;ratioP2;P2;SDS_P1;SDS_P2;PMS_P1;PMS_P2;Temp;Humidity;BMP_temperature;BMP_pressure;BME280_temperature;BME280_humidity;BME280_pressure;Samples;Min_cycle;Max_cycle;Signal;HPM_P1;HPM_P2
2022/01/16 00:06:19;;;;;;;0.77;0.57;;;;;;;18.09;28.04;98004.81;5148527;28;20018;-64
2022/01/16 00:08:45;;;;;;;1.65;0.93;;;;;;;18.06;28.16;98007.91;5148382;28;20011;-65
2022/01/16 00:11:14;;;;;;;1.38;0.80;;;;;;;18.05;28.14;98012.44;5148380;28;20015;-65
2022/01/16 00:13:39;;;;;;;8.35;2.42;;;;;;;18.06;28.18;98005.22;5148355;28;20007;-65
2022/01/16 00:16:05;;;;;;;1.13;0.73;;;;;;;18.12;28.18;98018.59;5148149;28;20011;-65
2022/01/16 00:18:41;;;;;;;2.15;0.73;;;;;;;18.18;28.10;98016.13;5148266;27;20053;-65
2022/01/16 00:21:07;;;;;;;1.58;0.82;;;;;;;18.22;28.08;98012.81;5148342;28;20120;-64
2022/01/16 00:23:33;;;;;;;0.95;0.73;;;;;;;18.19;28.04;98010.56;5148150;27;20007;-65
2022/01/16 00:25:58;;;;;;;2.03;0.80;;;;;;;18.21;28.12;98005.00;5148272;28;20007;-65
2022/01/16 00:28:24;;;;;;;1.20;0.80;;;;;;;18.21;27.96;98011.19;5148191;27;20039;-65
2022/01/16 00:30:51;;;;;;;1.08;0.70;;;;;;;18.21;28.12;98019.22;5148050;28;20087;-65
2022/01/16 00:33:17;;;;;;;1.02;0.88;;;;;;;18.20;28.09;98020.25;5148128;27;20018;-65
2022/01/16 00:35:43;;;;;;;1.05;0.73;;;;;;;18.21;28.01;98029.91;5148163;28;20015;-65
2022/01/16 00:38:09;;;;;;;0.93;0.60;;;;;;;18.21;28.02;98029.91;5148057;27;20068;-65
2022/01/16 00:40:35;;;;;;;0.73;0.60;;;;;;;18.21;28.06;98029.09;5148213;28;20196;-65
2022/01/16 00:43:01;;;;;;;1.10;0.70;;;;;;;18.23;27.94;98027.84;5148116;27;20078;-65
2022/01/16 00:45:29;;;;;;;1.75;0.75;;;;;;;18.22;27.95;98026.22;5148113;28;20220;-65
2022/01/16 00:47:55;;;;;;;0.93;0.70;;;;;;;18.22;28.08;98030.75;5148086;27;20030;-64
2022/01/16 00:50:20;;;;;;;0.65;0.50;;;;;;;18.22;27.72;98028.88;5147954;28;20015;-64
2022/01/16 00:52:46;;;;;;;0.98;0.80;;;;;;;18.21;28.09;98040.63;5147969;27;20014;-64
2022/01/16 00:55:11;;;;;;;0.85;0.65;;;;;;;18.22;28.12;98052.16;5150416;27;20014;-65
2022/01/16 00:57:37;;;;;;;0.98;0.50;;;;;;;18.25;28.04;98054.41;5151551;27;20031;-65
2022/01/16 01:00:05;;;;;;;1.83;0.80;;;;;;;18.26;28.15;98059.56;5151635;27;20070;-65
2022/01/16 01:02:30;;;;;;;0.68;0.40;;;;;;;18.27;27.95;98065.75;5151553;27;20030;-64
2022/01/16 01:04:56;;;;;;;1.10;0.70;;;;;;;18.27;28.13;98066.59;5151622;27;20070;-64
2022/01/16 01:07:22;;;;;;;1.20;0.65;;;;;;;18.26;28.18;98072.97;5151326;27;20031;-64
2022/01/16 01:09:47;;;;;;;1.48;0.50;;;;;;;18.25;28.18;98081.19;5151372;27;20011;-65
2022/01/16 01:12:24;;;;;;;1.98;0.65;;;;;;;18.25;27.93;98086.53;5151285;27;20232;-64
2022/01/16 01:15:06;;;;;;;0.77;0.52;;;;;;;18.25;27.99;98086.53;5151375;27;20038;-64
2022/01/16 01:17:36;;;;;;;1.00;0.57;;;;;;;18.27;28.06;98088.00;5151106;27;20038;-65
2022/01/16 01:20:05;;;;;;;1.23;0.70;;;;;;;18.26;27.93;98098.91;5151235;27;20023;-65
2022/01/16 01:22:30;;;;;;;1.25;0.70;;;;;;;18.26;27.98;98105.09;5150977;27;20074;-65
2022/01/16 01:24:56;;;;;;;0.77;0.60;;;;;;;18.28;28.01;98107.56;5151100;27;20022;-65
2022/01/16 01:27:23;;;;;;;0.63;0.40;;;;;;;18.26;27.96;98114.97;5151081;27;20027;-65
2022/01/16 01:29:59;;;;;;;1.13;0.55;;;;;;;18.27;28.13;98112.09;5150905;27;20249;-65
2022/01/16 01:32:25;;;;;;;1.35;0.50;;;;;;;18.25;28.06;98122.19;5150995;27;20026;-65
2022/01/16 01:34:50;;;;;;;3.97;0.52;;;;;;;18.28;28.12;98124.47;5150933;27;20220;-65
2022/01/16 01:37:16;;;;;;;1.10;0.70;;;;;;;18.32;28.15;98127.53;5150784;27;20018;-65
2022/01/16 01:39:41;;;;;;;1.30;0.90;;;;;;;18.33;28.03;98123.00;5150897;27;20015;-65
2022/01/16 01:42:10;;;;;;;1.65;0.70;;;;;;;18.30;28.20;98135.78;5150758;27;20067;-65
2022/01/16 01:52:53;;;;;;;1.02;0.63;;;;;;;18.32;27.53;98142.75;5150471;27;20023;-65
2022/01/16 01:55:20;;;;;;;0.88;0.50;;;;;;;18.33;27.83;98153.28;5150495;27;20015;-65
2022/01/16 01:57:45;;;;;;;0.80;0.60;;;;;;;18.30;27.84;98151.84;5150465;27;20104;-65
2022/01/16 02:00:17;;;;;;;1.02;0.57;;;;;;;18.29;28.04;98171.63;5150432;27;20023;-65
2022/01/16 02:05:18;;;;;;;0.95;0.73;;;;;;;18.29;27.79;98186.84;5150563;27;20292;-65
2022/01/16 02:07:44;;;;;;;0.90;0.60;;;;;;;18.28;27.78;98198.59;5150252;27;20019;-65
2022/01/16 02:10:10;;;;;;;1.95;0.63;;;;;;;18.28;27.75;98206.63;5150454;27;20127;-65
2022/01/16 02:12:39;;;;;;;1.02;0.73;;;;;;;18.28;27.70;98193.22;5150164;27;20235;-65
2022/01/16 02:15:30;;;;;;;0.55;0.55;;;;;;;18.28;27.66;98194.06;5150398;27;20019;-65
2022/01/16 02:32:26;;;;;;;1.13;0.65;;;;;;;18.26;27.41;98110.44;5129523;28;20026;-66
2022/01/16 02:34:47;;;;;;;0.80;0.60;;;;;;;18.24;27.32;98077.69;5129006;28;20012;-65
2022/01/16 02:37:15;;;;;;;2.42;0.77;;;;;;;18.23;27.15;98142.16;5129063;28;20018;-65
2022/01/16 02:39:48;;;;;;;1.48;0.85;;;;;;;18.22;27.29;98175.31;5129090;28;20074;-65
2022/01/16 02:42:15;;;;;;;1.05;0.68;;;;;;;18.20;27.25;98220.22;5129016;28;20016;-65
2022/01/16 02:44:47;;;;;;;1.13;0.63;;;;;;;18.19;27.13;98235.44;5133565;27;20018;-65
2022/01/16 02:47:20;;;;;;;0.90;0.65;;;;;;;18.15;27.17;98167.28;5149578;27;20019;-65
2022/01/16 02:49:50;;;;;;;1.67;1.02;;;;;;;18.13;27.22;98172.81;5149365;27;20026;-65
2022/01/16 02:52:22;;;;;;;0.90;0.50;;;;;;;18.10;27.13;98196.50;5149370;27;20015;-64
2022/01/16 02:54:50;;;;;;;1.45;0.70;;;;;;;18.13;26.99;98220.19;5149272;27;20239;-63
2022/01/16 02:57:19;;;;;;;1.50;0.80;;;;;;;18.15;27.05;98192.19;5149221;27;20034;-64
2022/01/16 02:59:50;;;;;;;0.90;0.77;;;;;;;18.11;27.05;98156.13;5131320;27;20162;-64
2022/01/16 03:02:19;;;;;;;1.38;0.70;;;;;;;18.11;27.11;98198.97;5149122;27;20026;-64
2022/01/16 03:04:44;;;;;;;0.80;0.65;;;;;;;18.12;27.25;98202.47;5131144;27;20014;-64
2022/01/16 03:07:10;;;;;;;0.73;0.55;;;;;;;18.12;27.01;98215.88;5149068;27;20018;-64
2022/01/16 03:12:10;;;;;;;0.88;0.68;;;;;;;18.17;27.05;98229.44;5149006;27;20004;-65
2022/01/16 03:14:37;;;;;;;3.55;0.93;;;;;;;18.21;27.23;98221.84;5149043;27;20216;-64
2022/01/16 03:17:02;;;;;;;1.60;0.90;;;;;;;18.21;27.07;98220.00;5148243;27;20026;-64
2022/01/16 03:22:12;;;;;;;1.10;0.60;;;;;;;18.20;27.04;98231.72;5148859;27;20045;-64
2022/01/16 03:24:44;;;;;;;0.93;0.50;;;;;;;18.19;27.00;98256.84;5148921;27;20019;-64
2022/01/16 03:27:18;;;;;;;1.02;0.65;;;;;;;18.18;27.08;98257.88;5148858;27;20014;-65
2022/01/16 03:29:46;;;;;;;0.80;0.47;;;;;;;18.18;27.10;98257.06;5148635;27;20042;-64
2022/01/16 03:32:15;;;;;;;1.42;0.80;;;;;;;18.15;27.03;98274.34;5148764;27;20023;-64
2022/01/16 03:34:41;;;;;;;1.33;0.90;;;;;;;18.14;27.02;98251.28;5148758;27;20018;-65
2022/01/16 03:37:07;;;;;;;1.20;0.70;;;;;;;18.15;27.00;98255.63;5148660;27;20011;-64
2022/01/16 03:39:33;;;;;;;0.75;0.50;;;;;;;18.17;26.97;98274.16;5148703;27;20015;-64
2022/01/16 03:42:00;;;;;;;1.13;0.80;;;;;;;18.17;26.92;98280.31;5148688;27;20017;-64
2022/01/16 03:44:27;;;;;;;1.45;0.68;;;;;;;18.18;27.00;98281.16;5148649;28;20011;-65
2022/01/16 03:46:53;;;;;;;1.05;0.60;;;;;;;18.18;26.91;98287.31;5148543;27;20019;-64
2022/01/16 03:49:21;;;;;;;0.80;0.57;;;;;;;18.18;27.13;98295.34;5148631;28;20011;-64
2022/01/16 03:51:48;;;;;;;1.48;1.05;;;;;;;18.15;27.06;98293.09;5148396;27;20033;-64
2022/01/16 03:54:16;;;;;;;0.65;0.50;;;;;;;18.15;27.12;98287.75;5148563;28;20026;-64
2022/01/16 03:56:43;;;;;;;1.50;1.00;;;;;;;18.16;27.02;98284.00;5148570;28;20023;-64
2022/01/16 03:59:09;;;;;;;1.25;0.65;;;;;;;18.18;27.09;98291.84;5148665;27;20011;-64
2022/01/16 04:01:35;;;;;;;1.50;0.60;;;;;;;18.17;27.11;98299.03;5148490;28;20125;-64
2022/01/16 04:04:01;;;;;;;1.73;0.85;;;;;;;18.15;26.96;98301.94;5148470;27;20100;-64
2022/01/16 04:06:27;;;;;;;0.80;0.63;;;;;;;18.16;26.98;98305.44;5148417;28;20015;-65
2022/01/16 04:08:54;;;;;;;1.10;0.70;;;;;;;18.18;26.85;98311.41;5148334;27;20052;-64
2022/01/16 04:11:25;;;;;;;1.10;0.80;;;;;;;18.19;27.02;98310.38;5148335;28;20015;-67
2022/01/16 04:13:53;;;;;;;2.00;0.85;;;;;;;18.21;27.07;98308.34;5148267;27;20015;-64
2022/01/16 04:16:21;;;;;;;2.55;0.70;;;;;;;18.19;26.94;98317.59;5148276;28;20228;-64
2022/01/16 04:18:51;;;;;;;1.33;0.80;;;;;;;18.19;27.03;98321.09;5148290;27;20174;-64
2022/01/16 04:21:22;;;;;;;1.40;0.70;;;;;;;18.17;27.15;98323.16;5148320;28;20078;-64
2022/01/16 04:23:50;;;;;;;0.82;0.52;;;;;;;18.16;26.99;98332.19;5148171;27;20029;-64
2022/01/16 04:26:17;;;;;;;1.60;1.05;;;;;;;18.15;27.03;98331.38;5148520;28;20246;-64
2022/01/16 04:28:43;;;;;;;1.05;0.60;;;;;;;18.18;26.98;98345.41;5148274;27;20019;-65
2022/01/16 04:31:09;;;;;;;0.90;0.70;;;;;;;18.13;27.05;98322.72;5151984;27;20035;-64
2022/01/16 04:33:35;;;;;;;1.67;0.70;;;;;;;18.14;27.13;98335.09;5152109;27;20015;-65
2022/01/16 04:36:02;;;;;;;0.70;0.52;;;;;;;18.17;27.17;98341.06;5152115;27;20090;-64
2022/01/16 04:38:27;;;;;;;1.00;0.70;;;;;;;18.14;27.02;98337.75;5152012;27;20019;-64
2022/01/16 04:43:51;;;;;;;1.45;0.60;;;;;;;18.15;26.96;98347.44;5151939;27;20082;-65
2022/01/16 04:46:21;;;;;;;1.60;0.70;;;;;;;18.17;27.06;98333.03;5152008;27;20022;-65
2022/01/16 04:48:48;;;;;;;0.57;0.40;;;;;;;18.18;27.07;98332.81;5151881;27;20075;-65
2022/01/16 04:51:14;;;;;;;0.98;0.50;;;;;;;18.20;26.88;98336.13;5151827;27;20023;-66
2022/01/16 04:53:41;;;;;;;0.68;0.50;;;;;;;18.18;27.03;98346.22;5151728;27;20137;-65
2022/01/16 04:56:07;;;;;;;1.23;0.60;;;;;;;18.17;26.96;98355.28;5151687;27;20059;-65
2022/01/16 04:58:34;;;;;;;1.00;0.52;;;;;;;18.17;26.91;98349.09;5151690;27;20281;-65
2022/01/16 05:01:00;;;;;;;2.33;0.95;;;;;;;18.19;26.92;98357.75;5151673;27;20015;-65
2022/01/16 05:03:27;;;;;;;1.17;0.70;;;;;;;18.21;26.82;98369.91;5151527;27;20123;-65
2022/01/16 05:05:54;;;;;;;3.60;0.75;;;;;;;18.24;26.82;98369.53;5151548;27;20015;-66
2022/01/16 05:08:20;;;;;;;1.25;0.75;;;;;;;18.26;26.87;98372.84;5151522;27;20039;-65
2022/01/16 05:10:46;;;;;;;0.95;0.57;;;;;;;18.26;26.83;98377.34;5151332;27;20027;-66
2022/01/16 05:13:28;;;;;;;1.25;0.47;;;;;;;18.27;26.77;98385.19;5151368;27;20034;-65
2022/01/16 05:18:40;;;;;;;1.30;0.60;;;;;;;18.22;26.86;98394.84;5151306;27;20026;-65
2022/01/16 05:21:07;;;;;;;1.42;0.80;;;;;;;18.19;26.69;98396.06;5151300;27;20026;-65
2022/01/16 05:23:34;;;;;;;1.13;0.40;;;;;;;18.21;26.71;98398.56;5151109;27;20139;-65
2022/01/16 05:26:01;;;;;;;0.70;0.40;;;;;;;18.21;26.67;98407.41;5151247;27;20035;-65
2022/01/16 05:28:27;;;;;;;1.35;0.60;;;;;;;18.19;26.78;98414.78;5151049;27;20030;-65
2022/01/16 05:30:54;;;;;;;1.48;0.63;;;;;;;18.19;26.62;98408.63;5150857;27;20092;-65
2022/01/16 05:33:20;;;;;;;1.25;0.40;;;;;;;18.20;26.68;98419.13;5150975;27;20038;-65
2022/01/16 05:35:46;;;;;;;1.13;0.60;;;;;;;18.20;26.42;98424.47;5151033;27;20128;-65
2022/01/16 05:38:12;;;;;;;0.82;0.57;;;;;;;18.18;26.77;98429.19;5150930;27;20088;-65
2022/01/16 05:40:38;;;;;;;0.95;0.30;;;;;;;18.15;26.73;98443.00;5150444;27;20213;-65
2022/01/16 05:43:04;;;;;;;0.63;0.40;;;;;;;18.13;26.49;98434.34;5150649;27;20050;-67
2022/01/16 05:45:29;;;;;;;0.77;0.63;;;;;;;18.15;26.75;98438.47;5150679;27;20011;-65
2022/01/16 05:47:55;;;;;;;0.95;0.60;;;;;;;18.17;26.57;98440.13;5150704;27;20070;-65
2022/01/16 05:50:22;;;;;;;0.80;0.55;;;;;;;18.18;26.54;98441.78;5150690;27;20026;-65
2022/01/16 05:52:48;;;;;;;0.80;0.50;;;;;;;18.18;26.67;98447.94;5150616;27;20030;-65
2022/01/16 05:55:14;;;;;;;0.73;0.43;;;;;;;18.16;26.52;98450.00;5150656;27;20094;-65
2022/01/16 05:57:40;;;;;;;0.45;0.32;;;;;;;18.17;26.62;98461.53;5150460;27;20243;-65
2022/01/16 06:00:08;;;;;;;0.68;0.38;;;;;;;18.15;26.55;98453.72;5150540;27;20022;-66
2022/01/16 06:02:33;;;;;;;1.35;0.60;;;;;;;18.15;26.51;98467.09;5150320;27;20015;-65
2022/01/16 06:04:59;;;;;;;0.85;0.30;;;;;;;18.16;26.48;98460.69;5150393;27;20018;-65
2022/01/16 06:07:25;;;;;;;0.82;0.32;;;;;;;18.15;26.43;98453.72;5150321;27;20015;-65
2022/01/16 06:09:52;;;;;;;0.85;0.43;;;;;;;18.16;26.44;98458.03;5150255;27;20023;-64
2022/01/16 06:12:20;;;;;;;0.68;0.30;;;;;;;18.17;26.35;98459.69;5150222;27;20011;-64
2022/01/16 06:14:46;;;;;;;1.27;0.30;;;;;;;18.19;26.40;98452.28;5150122;27;20011;-64
2022/01/16 06:17:12;;;;;;;0.63;0.40;;;;;;;18.18;26.41;98458.66;5149893;27;20007;-64
2022/01/16 06:19:38;;;;;;;0.40;0.40;;;;;;;18.17;26.30;98461.53;5150081;27;20018;-64
2022/01/16 06:22:04;;;;;;;0.60;0.35;;;;;;;18.18;26.34;98464.00;5149905;27;20007;-64
2022/01/16 06:24:29;;;;;;;1.02;0.60;;;;;;;18.18;26.51;98452.50;5149992;27;20015;-64
2022/01/16 06:26:55;;;;;;;0.50;0.30;;;;;;;18.13;26.39;98461.13;5149826;27;20079;-65
2022/01/16 06:29:21;;;;;;;1.15;0.40;;;;;;;18.12;26.43;98448.75;5149766;27;20050;-65
2022/01/16 06:31:46;;;;;;;0.57;0.38;;;;;;;18.11;26.39;98447.09;5149706;27;20022;-65
2022/01/16 06:34:12;;;;;;;0.52;0.35;;;;;;;18.15;26.38;98448.38;5149688;27;20015;-65
2022/01/16 06:36:38;;;;;;;0.30;0.25;;;;;;;18.18;26.18;98455.97;5149673;27;20273;-65
2022/01/16 06:39:06;;;;;;;0.40;0.30;;;;;;;18.19;26.14;98464.84;5149592;27;20022;-65
2022/01/16 06:41:33;;;;;;;0.40;0.35;;;;;;;18.18;26.08;98464.00;5149572;27;20011;-65
2022/01/16 06:43:59;;;;;;;0.32;0.28;;;;;;;18.19;26.23;98463.00;5149410;27;20022;-64
2022/01/16 06:46:25;;;;;;;0.75;0.40;;;;;;;18.17;26.18;98467.72;5149446;27;20042;-64
2022/01/16 06:48:50;;;;;;;0.38;0.22;;;;;;;18.16;26.37;98460.69;5149444;27;20166;-66
2022/01/16 06:51:19;;;;;;;0.70;0.38;;;;;;;18.19;26.12;98475.56;5149130;27;20026;-63
2022/01/16 06:53:46;;;;;;;0.88;0.60;;;;;;;18.18;26.28;98471.22;5148942;27;20081;-65
2022/01/16 06:56:12;;;;;;;0.20;0.20;;;;;;;18.18;26.05;98472.03;5149850;27;20036;-64
2022/01/16 06:58:38;;;;;;;0.60;0.43;;;;;;;18.16;26.57;98476.75;5149305;27;20216;-64
2022/01/16 07:01:03;;;;;;;1.13;0.47;;;;;;;18.17;26.43;98478.41;5131103;27;20007;-64
2022/01/16 07:03:29;;;;;;;2.47;0.20;;;;;;;18.20;26.33;98478.03;5149132;27;20019;-64
2022/01/16 07:05:54;;;;;;;0.47;0.40;;;;;;;18.20;26.34;98482.56;5149021;27;20015;-64
2022/01/16 07:08:23;;;;;;;0.65;0.40;;;;;;;18.15;26.21;98475.94;5131018;27;20088;-64
2022/01/16 07:10:50;;;;;;;0.28;0.25;;;;;;;18.19;26.45;98484.41;5148966;27;20022;-65
2022/01/16 07:13:16;;;;;;;0.73;0.30;;;;;;;18.19;26.35;98496.97;5149214;27;20093;-65
2022/01/16 07:15:42;;;;;;;0.60;0.40;;;;;;;18.21;26.24;98493.06;5149039;27;20045;-65
2022/01/16 07:18:08;;;;;;;0.40;0.30;;;;;;;18.22;26.27;98489.38;5148789;27;20224;-65
2022/01/16 07:20:33;;;;;;;0.60;0.30;;;;;;;18.25;26.04;98494.34;5148922;27;20019;-65
2022/01/16 07:22:59;;;;;;;0.47;0.30;;;;;;;18.28;26.15;98498.47;5148674;27;20097;-65
2022/01/16 07:25:24;;;;;;;0.60;0.38;;;;;;;18.26;26.25;98492.47;5148682;27;20078;-66
2022/01/16 07:27:50;;;;;;;0.77;0.20;;;;;;;18.26;26.16;98504.03;5148186;27;20038;-65
2022/01/16 07:30:15;;;;;;;0.68;0.35;;;;;;;18.28;26.07;98501.16;5148347;27;20062;-65
2022/01/16 07:32:41;;;;;;;0.45;0.32;;;;;;;18.23;26.21;98492.91;5148728;27;20022;-65
2022/01/16 07:35:07;;;;;;;1.40;0.60;;;;;;;18.23;26.22;98500.94;5148780;27;20007;-65
2022/01/16 07:37:33;;;;;;;1.20;0.40;;;;;;;18.25;26.16;98497.03;5148434;27;20192;-65
2022/01/16 07:39:58;;;;;;;0.55;0.30;;;;;;;18.28;26.18;98495.78;5148457;27;20015;-65
2022/01/16 07:42:24;;;;;;;0.30;0.30;;;;;;;18.24;26.23;98495.38;5148537;28;20022;-65
2022/01/16 07:44:49;;;;;;;0.38;0.30;;;;;;;18.26;26.14;98511.22;5148502;28;20011;-65
2022/01/16 07:47:15;;;;;;;0.20;0.20;;;;;;;18.23;26.07;98508.97;5148166;27;20015;-65
2022/01/16 07:49:40;;;;;;;0.60;0.25;;;;;;;18.27;26.28;98510.19;5148454;28;20038;-64
2022/01/16 07:52:06;;;;;;;1.05;0.40;;;;;;;18.24;26.13;98516.78;5148277;28;20007;-64
2022/01/16 07:54:32;;;;;;;1.00;0.20;;;;;;;18.25;26.27;98517.59;5148391;28;20034;-64
2022/01/16 07:56:57;;;;;;;0.30;0.22;;;;;;;18.26;26.27;98509.38;5148260;27;20019;-64
2022/01/16 07:59:23;;;;;;;1.15;0.40;;;;;;;18.27;26.14;98503.00;5148363;28;20078;-65
2022/01/16 08:01:48;;;;;;;0.70;0.30;;;;;;;18.27;26.19;98513.72;5148606;27;20019;-64
2022/01/16 08:04:14;;;;;;;1.25;0.43;;;;;;;18.29;26.08;98517.03;5151151;27;20022;-64
2022/01/16 08:06:39;;;;;;;0.57;0.20;;;;;;;18.31;25.96;98519.50;5152528;27;20021;-64
2022/01/16 08:09:05;;;;;;;0.40;0.20;;;;;;;18.32;26.10;98520.31;5152458;27;20110;-64
2022/01/16 08:11:31;;;;;;;0.82;0.43;;;;;;;18.31;25.98;98532.91;5152377;27;20117;-63
2022/01/16 08:13:56;;;;;;;1.75;0.32;;;;;;;18.32;26.16;98531.88;5134051;27;20019;-65
2022/01/16 08:16:22;;;;;;;0.65;0.30;;;;;;;18.32;25.93;98539.06;5152271;27;20026;-66
2022/01/16 08:18:47;;;;;;;1.20;0.50;;;;;;;18.33;26.11;98535.38;5152238;27;20011;-64
2022/01/16 08:21:13;;;;;;;0.90;0.40;;;;;;;18.33;25.96;98536.22;5152289;27;20007;-65
2022/01/16 08:23:38;;;;;;;0.68;0.47;;;;;;;18.34;25.91;98542.38;5152053;27;20224;-64
2022/01/16 08:26:04;;;;;;;0.70;0.32;;;;;;;18.34;26.02;98545.91;5152125;27;20034;-64
2022/01/16 08:28:30;;;;;;;1.00;0.30;;;;;;;18.33;26.18;98538.88;5152059;27;20042;-65
2022/01/16 08:30:56;;;;;;;0.93;0.40;;;;;;;18.33;25.98;98535.38;5151251;27;20031;-64
2022/01/16 08:33:22;;;;;;;1.08;0.30;;;;;;;18.33;26.00;98527.31;5151958;27;20136;-64
2022/01/16 08:35:47;;;;;;;1.00;0.30;;;;;;;18.33;26.01;98524.66;5152053;27;20019;-65
2022/01/16 08:38:13;;;;;;;0.20;0.20;;;;;;;18.29;26.05;98521.53;5151998;27;20080;-65
2022/01/16 08:40:38;;;;;;;0.80;0.32;;;;;;;18.25;25.97;98518.44;5151979;27;20179;-65
2022/01/16 08:43:08;;;;;;;0.55;0.40;;;;;;;18.25;26.15;98523.78;5151705;27;20050;-65
2022/01/16 08:45:39;;;;;;;0.95;0.40;;;;;;;18.28;26.17;98526.09;5151771;27;20074;-65
2022/01/16 08:48:06;;;;;;;1.00;0.40;;;;;;;18.26;26.09;98535.31;5151818;27;20042;-65
2022/01/16 08:50:33;;;;;;;0.90;0.45;;;;;;;18.23;26.15;98533.88;5151761;27;20031;-66
2022/01/16 08:52:59;;;;;;;0.82;0.40;;;;;;;18.24;26.09;98534.69;5151766;27;20023;-65
2022/01/16 08:55:24;;;;;;;1.92;0.43;;;;;;;18.23;26.15;98547.25;5133782;27;20019;-66
2022/01/16 08:57:50;;;;;;;0.90;0.30;;;;;;;18.24;26.15;98548.91;5151700;27;20023;-65
2022/01/16 09:00:16;;;;;;;2.08;0.50;;;;;;;18.24;26.58;98554.28;5151665;27;20221;-66
2022/01/16 09:02:41;;;;;;;1.77;0.40;;;;;;;18.21;26.34;98556.50;5151601;27;20031;-66
2022/01/16 09:05:08;;;;;;;0.50;0.30;;;;;;;18.21;26.21;98553.84;5151529;27;20019;-65
2022/01/16 09:07:33;;;;;;;1.08;0.35;;;;;;;18.23;26.19;98554.47;5151439;27;20054;-65
2022/01/16 09:10:00;;;;;;;1.02;0.45;;;;;;;18.24;26.17;98548.91;5151336;27;20251;-65
2022/01/16 09:12:26;;;;;;;1.35;0.52;;;;;;;18.29;26.25;98535.78;5151280;27;20022;-65
2022/01/16 09:14:53;;;;;;;0.95;0.32;;;;;;;18.32;25.99;98544.41;5150453;27;20078;-65
2022/01/16 09:17:18;;;;;;;0.98;0.63;;;;;;;18.33;26.24;98540.72;5151083;27;20232;-65
2022/01/16 09:19:44;;;;;;;1.13;0.50;;;;;;;18.37;26.04;98532.13;5151063;27;20026;-66
2022/01/16 09:22:09;;;;;;;1.15;0.32;;;;;;;18.34;26.25;98537.88;5151182;27;20015;-66
2022/01/16 09:24:35;;;;;;;1.15;0.80;;;;;;;18.26;26.25;98527.28;5151209;27;20019;-66
2022/01/16 09:27:01;;;;;;;0.40;0.35;;;;;;;18.28;26.22;98530.59;5132958;27;20038;-65
2022/01/16 09:29:27;;;;;;;1.92;0.38;;;;;;;18.28;26.11;98538.63;5151034;27;20061;-65
2022/01/16 09:31:52;;;;;;;0.60;0.32;;;;;;;18.28;26.28;98536.81;5151128;27;20022;-65
2022/01/16 09:34:18;;;;;;;0.88;0.40;;;;;;;18.33;26.40;98543.41;5150906;27;20010;-65
2022/01/16 09:36:44;;;;;;;0.98;0.50;;;;;;;18.37;26.22;98537.47;5150935;27;20230;-65
2022/01/16 09:39:10;;;;;;;0.75;0.43;;;;;;;18.39;26.11;98538.09;5151059;27;20094;-65
2022/01/16 09:41:36;;;;;;;1.05;0.40;;;;;;;18.41;26.18;98532.56;5150808;27;20181;-65
2022/01/16 09:44:02;;;;;;;1.38;0.40;;;;;;;18.45;26.26;98523.09;5150719;27;20029;-65
2022/01/16 09:46:28;;;;;;;1.33;0.60;;;;;;;18.44;26.06;98522.25;5150691;27;20021;-65
2022/01/16 09:48:54;;;;;;;0.50;0.30;;;;;;;18.44;26.27;98518.78;5150650;27;20011;-65
2022/01/16 09:51:19;;;;;;;0.82;0.35;;;;;;;18.40;25.98;98515.63;5150887;27;20030;-65
2022/01/16 09:53:45;;;;;;;1.58;0.40;;;;;;;18.36;26.41;98509.03;5150853;27;20007;-65
2022/01/16 09:56:11;;;;;;;1.13;0.40;;;;;;;18.30;26.19;98505.31;5150549;27;20015;-64
2022/01/16 09:58:39;;;;;;;0.73;0.35;;;;;;;18.32;26.36;98517.63;5150455;27;20082;-65
2022/01/16 10:01:05;;;;;;;1.55;0.50;;;;;;;18.30;26.33;98515.16;5150463;27;20011;-65
2022/01/16 10:03:41;;;;;;;4.15;0.75;;;;;;;18.34;26.23;98518.28;5150263;27;20223;-65
2022/01/16 10:06:09;;;;;;;1.10;0.50;;;;;;;18.41;26.16;98524.50;5150506;27;20011;-65
2022/01/16 10:08:36;;;;;;;1.08;0.55;;;;;;;18.48;26.09;98528.03;5150150;27;20015;-65
2022/01/16 10:11:30;;;;;;;0.85;0.30;;;;;;;18.48;26.11;98511.16;5150085;27;20083;-65
2022/01/16 10:14:46;;;;;;;0.70;0.50;;;;;;;18.48;26.31;98525.38;5149926;27;20085;-66
2022/01/16 10:16:43;;;;;;;1.58;0.40;;;;;;;18.39;26.40;98519.34;5138795;27;20015;-65
2022/01/16 10:19:21;;;;;;;1.75;0.82;;;;;;;18.33;26.72;98514.78;5149917;27;20011;-64
2022/01/16 10:21:48;;;;;;;0.93;0.50;;;;;;;18.28;26.85;98522.56;5149883;27;20022;-64
2022/01/16 10:24:29;;;;;;;0.60;0.30;;;;;;;18.26;27.13;98517.41;5150068;27;20179;-65
2022/01/16 10:27:07;;;;;;;1.20;0.50;;;;;;;18.43;26.89;98509.06;5150142;27;20021;-65
2022/01/16 10:29:53;;;;;;;2.67;0.60;;;;;;;18.54;26.88;98510.34;5149736;27;20058;-64
2022/01/16 10:32:21;;;;;;;1.85;0.77;;;;;;;18.55;26.76;98512.84;5149752;27;20067;-65
2022/01/16 10:35:07;;;;;;;0.80;0.60;;;;;;;18.63;26.83;98505.66;5149836;27;20019;-64
2022/01/16 10:37:33;;;;;;;1.25;0.60;;;;;;;18.73;26.88;98504.28;5149583;27;20011;-64
2022/01/16 10:40:06;;;;;;;1.27;0.65;;;;;;;18.89;26.78;98499.59;5149810;27;20035;-64
2022/01/16 10:42:34;;;;;;;1.33;0.73;;;;;;;19.05;26.74;98506.47;5149555;27;20015;-64
2022/01/16 10:45:14;;;;;;;1.05;0.70;;;;;;;19.16;26.24;98505.06;5149625;27;20082;-64
2022/01/16 10:47:42;;;;;;;1.30;0.70;;;;;;;19.16;26.56;98495.19;5149734;27;20067;-64
2022/01/16 10:50:14;;;;;;;3.47;0.50;;;;;;;19.20;26.33;98491.06;5149458;27;20064;-64
2022/01/16 10:52:54;;;;;;;1.27;0.73;;;;;;;19.24;26.41;98488.81;5149704;27;20087;-64
2022/01/16 10:55:23;;;;;;;2.33;0.90;;;;;;;19.28;26.06;98475.81;5149286;27;20219;-64
2022/01/16 10:57:50;;;;;;;1.95;0.70;;;;;;;19.26;26.11;98481.41;5149266;27;20026;-65
2022/01/16 11:00:22;;;;;;;0.77;0.45;;;;;;;19.19;26.27;98494.75;5149379;27;20212;-64
2022/01/16 11:02:50;;;;;;;0.98;0.68;;;;;;;19.07;26.37;98477.63;5149169;27;20077;-64
2022/01/16 11:05:21;;;;;;;1.70;1.00;;;;;;;18.97;26.58;98490.59;5149193;27;20095;-64
2022/01/16 11:07:56;;;;;;;2.05;0.63;;;;;;;18.86;26.67;98494.63;5149101;27;20082;-64
2022/01/16 11:10:26;;;;;;;3.70;0.95;;;;;;;18.79;26.77;98496.47;5149085;27;20029;-64
2022/01/16 11:12:57;;;;;;;1.48;0.93;;;;;;;18.75;26.85;98507.59;5148980;27;20207;-64
2022/01/16 11:15:24;;;;;;;1.63;0.90;;;;;;;18.74;26.99;98499.75;5148516;27;20128;-64
2022/01/16 11:17:50;;;;;;;1.77;1.27;;;;;;;18.73;26.98;98498.09;5148752;27;20033;-64
2022/01/16 11:20:18;;;;;;;1.63;1.10;;;;;;;18.72;27.04;98504.47;5148888;27;20015;-64
2022/01/16 11:23:00;;;;;;;4.03;1.08;;;;;;;18.68;27.16;98511.25;5148150;27;20015;-64
2022/01/16 11:25:31;;;;;;;0.95;0.80;;;;;;;18.63;27.38;98508.34;5148833;27;20015;-64
2022/01/16 11:28:00;;;;;;;4.40;1.15;;;;;;;18.63;27.59;98508.34;5148797;27;20022;-65
2022/01/16 11:30:29;;;;;;;1.77;0.98;;;;;;;18.64;27.77;98516.19;5148622;27;20045;-64
2022/01/16 11:32:56;;;;;;;3.40;0.93;;;;;;;18.65;28.14;98517.00;5148605;27;20092;-63
2022/01/16 11:35:22;;;;;;;1.50;1.10;;;;;;;18.66;28.34;98513.31;5148958;27;20050;-63
2022/01/16 11:37:49;;;;;;;4.45;1.63;;;;;;;18.67;28.58;98520.31;5152538;27;20014;-63
2022/01/16 11:40:21;;;;;;;2.22;1.08;;;;;;;18.66;29.09;98513.31;5152918;27;20116;-64
2022/01/16 11:43:13;;;;;;;2.95;1.40;;;;;;;18.64;29.49;98510.00;5148633;27;20045;-64
2022/01/16 11:45:53;;;;;;;2.45;1.17;;;;;;;18.60;29.75;98507.72;5148581;27;20171;-63
2022/01/16 11:48:55;;;;;;;4.93;1.30;;;;;;;18.58;30.00;98511.63;5148579;27;20086;-63
2022/01/16 11:51:36;;;;;;;2.50;1.10;;;;;;;18.59;30.02;98513.28;5145999;27;20031;-63
2022/01/16 11:54:07;;;;;;;2.75;1.00;;;;;;;18.60;29.92;98520.28;5148088;27;20136;-64
2022/01/16 11:56:42;;;;;;;2.75;1.27;;;;;;;18.57;29.83;98510.81;5148560;28;20031;-64
2022/01/16 11:59:10;;;;;;;1.38;0.88;;;;;;;18.57;29.91;98502.78;5148469;28;20027;-63
2022/01/16 12:01:43;;;;;;;3.88;1.13;;;;;;;18.56;29.84;98500.28;5148466;28;20019;-64
2022/01/16 12:04:30;;;;;;;2.35;1.17;;;;;;;18.53;29.89;98506.84;5148064;27;20046;-64
2022/01/16 12:06:56;;;;;;;5.50;2.63;;;;;;;18.58;29.99;98501.75;5148902;27;20280;-64
2022/01/16 12:12:11;;;;;;;2.40;1.10;;;;;;;18.76;29.30;98508.41;5148153;28;20156;-64
2022/01/16 12:14:53;;;;;;;1.70;1.10;;;;;;;18.89;28.95;98496.91;5148402;28;20023;-65
2022/01/16 12:17:29;;;;;;;3.10;0.90;;;;;;;19.02;28.60;98493.50;5148082;27;20027;-65
2022/01/16 12:19:56;;;;;;;2.10;1.00;;;;;;;19.17;28.26;98507.56;5148136;28;20019;-64
2022/01/16 12:22:44;;;;;;;1.23;0.85;;;;;;;19.30;27.98;98504.06;5148110;27;20034;-64